Time;durP1;ratioP1;P1;durP2;ratioP2;P2;SDS_P1;SDS_P2;PMS_P1;PMS_P2;Temp;Humidity;BMP_temperature;BMP_pressure;BME280_temperature;BME280_humidity;BME280_pressure;Samples;Min_cycle;Max_cycle;Signal;HPM_P1;HPM_P2
2022/04/17 00:02:23;;;;;;;7.53;5.07;;;;;;;9.18;43.24;102895.53;5192187;28;20388;-69
2022/04/17 00:04:54;;;;;;;8.27;5.28;;;;;;;9.16;43.29;102892.13;5196956;28;20468;-69
2022/04/17 00:07:26;;;;;;;7.43;4.70;;;;;;;9.12;43.23;102884.50;5200038;28;20026;-70
2022/04/17 00:09:58;;;;;;;8.02;5.13;;;;;;;9.12;42.39;102884.50;5197481;28;20049;-69
2022/04/17 00:12:29;;;;;;;7.90;5.00;;;;;;;9.15;42.44;102887.81;5196303;28;20214;-69
2022/04/17 00:15:03;;;;;;;8.20;5.18;;;;;;;9.05;43.00;102888.31;5196935;28;20096;-69
2022/04/17 00:17:34;;;;;;;7.07;5.10;;;;;;;9.04;42.13;102887.47;5196520;28;20072;-69
2022/04/17 00:20:06;;;;;;;8.48;5.05;;;;;;;8.87;43.30;102885.63;5197181;28;20109;-69
2022/04/17 00:22:38;;;;;;;7.28;4.38;;;;;;;8.92;42.61;102886.25;5194747;28;20029;-68
2022/04/17 00:25:11;;;;;;;8.05;4.55;;;;;;;8.88;42.32;102889.94;5195409;28;20054;-67
2022/04/17 00:27:43;;;;;;;7.03;4.85;;;;;;;8.78;43.90;102891.25;5198814;28;20030;-68
2022/04/17 00:30:14;;;;;;;5.65;4.15;;;;;;;8.75;43.44;102888.75;5187108;28;20080;-66
2022/04/17 00:32:45;;;;;;;7.30;4.95;;;;;;;8.80;42.68;102889.44;5195396;28;20025;-68
2022/04/17 00:35:16;;;;;;;6.72;4.28;;;;;;;8.71;43.36;102893.31;5192855;28;20449;-66
2022/04/17 00:37:48;;;;;;;6.22;4.10;;;;;;;8.70;43.57;102882.91;5193266;28;20324;-66
2022/04/17 00:40:19;;;;;;;4.72;3.75;;;;;;;8.56;44.43;102883.53;5196644;28;20304;-67
2022/04/17 00:42:51;;;;;;;6.95;4.47;;;;;;;8.58;44.35;102879.06;5195740;28;20030;-66
2022/04/17 00:45:22;;;;;;;6.63;4.50;;;;;;;8.50;44.34;102884.63;5193378;28;20107;-67
2022/04/17 00:47:53;;;;;;;6.03;4.13;;;;;;;8.46;44.95;102888.28;5197048;28;20026;-67
2022/04/17 00:50:25;;;;;;;6.35;3.90;;;;;;;8.29;44.71;102882.91;5194513;28;20030;-66
2022/04/17 00:52:56;;;;;;;6.13;4.38;;;;;;;8.28;44.60;102889.88;5194288;28;20160;-67
2022/04/17 00:55:27;;;;;;;5.40;4.22;;;;;;;8.22;44.31;102881.47;5193943;28;20453;-67
2022/04/17 00:58:00;;;;;;;6.47;4.30;;;;;;;8.20;44.67;102876.31;5196885;28;20208;-68
2022/04/17 01:00:33;;;;;;;7.10;4.15;;;;;;;8.13;45.41;102872.25;5193257;28;20046;-67
2022/04/17 01:03:04;;;;;;;5.82;4.22;;;;;;;8.04;45.48;102878.72;5196136;28;20045;-68
2022/04/17 01:05:37;;;;;;;7.45;4.13;;;;;;;8.08;46.38;102873.38;5195780;28;20034;-67
2022/04/17 01:08:12;;;;;;;7.25;4.47;;;;;;;8.09;44.73;102870.69;5197660;28;20381;-67
2022/04/17 01:10:44;;;;;;;7.78;4.45;;;;;;;8.02;45.89;102869.25;5194089;28;20563;-68
2022/04/17 01:13:16;;;;;;;7.30;4.05;;;;;;;7.98;45.98;102872.91;5193277;28;20101;-68
2022/04/17 01:15:48;;;;;;;6.82;4.30;;;;;;;7.88;45.96;102869.84;5195528;28;20037;-67
2022/04/17 01:18:19;;;;;;;7.07;4.35;;;;;;;7.89;46.89;102868.06;5192416;28;20117;-67
2022/04/17 01:20:51;;;;;;;6.28;3.92;;;;;;;7.84;46.06;102881.31;5192173;28;20105;-67
2022/04/17 01:29:02;;;;;;;6.63;4.07;;;;;;;7.78;46.26;102884.16;5192228;28;20120;-66
2022/04/17 01:31:34;;;;;;;6.30;4.40;;;;;;;7.64;47.33;102879.47;5191541;28;20476;-66
2022/04/17 01:34:05;;;;;;;6.13;4.57;;;;;;;7.56;47.72;102879.78;5197482;28;20022;-67
2022/04/17 01:36:36;;;;;;;6.43;4.13;;;;;;;7.57;47.50;102880.63;5196459;28;20037;-66
2022/04/17 01:39:07;;;;;;;7.63;4.03;;;;;;;7.54;47.59;102880.78;5196273;28;20122;-67
2022/04/17 01:41:39;;;;;;;6.80;4.22;;;;;;;7.47;48.52;102884.53;5196625;28;20083;-67
2022/04/17 01:44:11;;;;;;;6.45;4.03;;;;;;;7.53;47.75;102881.66;5195306;28;20014;-67
2022/04/17 01:46:43;;;;;;;5.13;3.60;;;;;;;7.43;48.22;102881.19;5195699;28;20392;-67
2022/04/17 01:49:16;;;;;;;6.13;3.97;;;;;;;7.29;49.49;102880.88;5193876;28;20029;-67
2022/04/17 01:51:48;;;;;;;5.80;4.20;;;;;;;7.24;49.33;102883.66;5194723;28;20035;-67
2022/04/17 01:54:20;;;;;;;6.35;3.80;;;;;;;7.22;49.24;102882.00;5192839;28;20030;-67
2022/04/17 01:56:52;;;;;;;5.63;3.95;;;;;;;7.08;49.59;102874.69;5195367;28;20429;-67
2022/04/17 01:59:24;;;;;;;8.73;4.82;;;;;;;7.03;49.77;102877.47;5194075;28;20067;-67
2022/04/17 02:01:55;;;;;;;6.05;4.55;;;;;;;6.99;51.29;102877.66;5195358;28;20029;-67
2022/04/17 02:04:28;;;;;;;10.00;4.47;;;;;;;6.94;50.64;102871.78;5193839;28;20558;-67
2022/04/17 02:06:59;;;;;;;6.95;4.65;;;;;;;6.85;51.78;102869.50;5193237;28;20406;-67
2022/04/17 02:09:30;;;;;;;5.95;4.07;;;;;;;6.78;52.34;102874.94;5192909;28;20030;-67
2022/04/17 02:12:02;;;;;;;6.65;4.20;;;;;;;6.76;51.34;102865.47;5195161;28;20026;-67
2022/04/17 02:14:33;;;;;;;5.57;4.22;;;;;;;6.72;52.51;102874.31;5194756;28;20031;-67
2022/04/17 02:17:04;;;;;;;6.63;4.43;;;;;;;6.67;51.82;102863.22;5193519;28;20065;-67
2022/04/17 02:19:36;;;;;;;6.28;4.40;;;;;;;6.56;52.54;102866.22;5195212;28;20025;-67
2022/04/17 02:22:07;;;;;;;7.10;4.20;;;;;;;6.52;52.35;102865.47;5195783;28;20038;-67
2022/04/17 02:24:38;;;;;;;6.97;4.03;;;;;;;6.64;49.86;102865.94;5196719;28;20026;-67
2022/04/17 02:27:09;;;;;;;5.25;3.97;;;;;;;6.55;51.77;102854.94;5195705;28;20506;-67
2022/04/17 02:29:41;;;;;;;6.72;4.40;;;;;;;6.50;52.34;102866.41;5195413;28;20027;-67
2022/04/17 02:32:12;;;;;;;7.07;3.83;;;;;;;6.49;52.35;102859.50;5199445;28;20025;-67
2022/04/17 02:34:43;;;;;;;5.93;4.22;;;;;;;6.47;53.34;102854.34;5196917;28;20026;-67
2022/04/17 02:37:15;;;;;;;5.35;4.05;;;;;;;6.43;53.38;102864.91;5199188;28;20010;-67
2022/04/17 02:39:46;;;;;;;5.70;3.90;;;;;;;6.45;52.04;102856.16;5198017;28;20538;-67
2022/04/17 02:42:17;;;;;;;5.25;3.95;;;;;;;6.34;52.85;102855.69;5196590;28;20046;-67
2022/04/17 02:44:48;;;;;;;6.95;3.90;;;;;;;6.30;53.44;102854.09;5196567;28;20480;-67
2022/04/17 02:50:11;;;;;;;6.03;3.88;;;;;;;6.18;54.82;102857.13;5199882;28;20109;-67
2022/04/17 02:52:43;;;;;;;7.60;4.05;;;;;;;6.16;55.46;102856.31;5197129;28;20305;-67
2022/04/17 02:55:14;;;;;;;6.68;3.88;;;;;;;6.13;56.38;102859.00;5198400;28;20397;-67
2022/04/17 02:57:45;;;;;;;7.18;3.92;;;;;;;6.02;55.64;102856.78;5196568;28;20030;-67
2022/04/17 03:00:17;;;;;;;7.45;4.82;;;;;;;6.03;56.13;102861.09;5198776;28;20042;-67
2022/04/17 03:05:39;;;;;;;6.00;3.83;;;;;;;5.85;56.39;102846.91;5200163;28;20038;-67
2022/04/17 03:08:15;;;;;;;6.85;4.20;;;;;;;5.90;56.43;102844.16;5199934;28;20018;-67
2022/04/17 03:10:46;;;;;;;7.90;4.30;;;;;;;5.79;57.40;102841.88;5198696;28;20149;-67
2022/04/17 03:13:17;;;;;;;5.28;4.20;;;;;;;5.73;57.70;102840.34;5198248;28;20399;-67
2022/04/17 03:15:49;;;;;;;7.18;4.07;;;;;;;5.67;57.95;102839.69;5197785;28;20488;-67
2022/04/17 03:18:20;;;;;;;5.32;3.90;;;;;;;5.62;58.72;102832.06;5195937;28;20137;-67
2022/04/17 03:20:51;;;;;;;6.10;3.63;;;;;;;5.64;57.47;102843.22;5197128;28;20061;-67
2022/04/17 03:23:22;;;;;;;8.50;4.13;;;;;;;5.59;58.08;102830.38;5199501;28;20421;-67
2022/04/17 03:25:54;;;;;;;6.03;3.72;;;;;;;5.57;58.46;102833.97;5197888;28;20480;-67
2022/04/17 03:28:25;;;;;;;6.10;4.03;;;;;;;5.49;58.63;102829.00;5195286;28;20117;-67
2022/04/17 03:30:56;;;;;;;6.20;4.25;;;;;;;5.47;58.79;102828.19;5199386;28;20052;-67
2022/04/17 03:33:28;;;;;;;5.13;3.58;;;;;;;5.55;59.86;102820.13;5196273;28;20034;-67
2022/04/17 03:35:59;;;;;;;6.93;3.97;;;;;;;5.38;59.18;102831.09;5193984;28;20220;-67
2022/04/17 03:38:30;;;;;;;6.03;4.50;;;;;;;5.37;59.71;102829.34;5197957;28;20030;-67
2022/04/17 03:41:02;;;;;;;6.43;3.90;;;;;;;5.34;58.83;102832.94;5198404;28;20108;-67
2022/04/17 03:43:33;;;;;;;6.63;3.83;;;;;;;5.33;59.99;102822.56;5195591;28;20749;-67
2022/04/17 03:46:04;;;;;;;6.10;3.75;;;;;;;5.37;58.42;102825.00;5197791;28;20531;-67
2022/04/17 03:48:36;;;;;;;6.63;4.03;;;;;;;5.30;59.16;102823.53;5196726;28;20286;-67
2022/04/17 03:51:07;;;;;;;5.07;3.83;;;;;;;5.23;59.22;102826.34;5197579;28;20092;-67
2022/04/17 03:53:38;;;;;;;5.40;3.80;;;;;;;5.20;60.42;102822.09;5197143;28;20455;-67
2022/04/17 03:56:10;;;;;;;5.72;3.88;;;;;;;5.22;58.98;102814.25;5198802;28;20018;-67
2022/04/17 03:58:41;;;;;;;6.00;3.55;;;;;;;5.18;59.95;102828.22;5196904;28;20104;-67
2022/04/17 04:01:13;;;;;;;5.57;4.22;;;;;;;5.10;60.17;102818.91;5194822;28;20050;-67
2022/04/17 04:03:44;;;;;;;5.90;3.75;;;;;;;5.05;61.10;102818.22;5196643;28;20477;-67
2022/04/17 04:06:16;;;;;;;6.40;3.95;;;;;;;5.02;61.92;102820.06;5195873;28;20602;-66
2022/04/17 04:08:49;;;;;;;5.80;3.95;;;;;;;4.96;61.24;102815.88;5196209;28;20021;-67
2022/04/17 04:11:20;;;;;;;7.75;4.32;;;;;;;5.00;61.45;102807.13;5196470;28;20396;-66
2022/04/17 04:13:52;;;;;;;4.68;3.50;;;;;;;4.97;62.36;102809.81;5195474;28;20033;-67
2022/04/17 04:16:23;;;;;;;6.25;4.43;;;;;;;4.97;62.24;102807.22;5193315;28;20084;-67
2022/04/17 04:18:55;;;;;;;5.47;4.10;;;;;;;4.99;62.05;102807.16;5199301;28;20018;-67
2022/04/17 04:21:26;;;;;;;7.50;4.40;;;;;;;4.94;62.19;102803.84;5197970;28;20096;-67
2022/04/17 04:23:57;;;;;;;6.25;3.78;;;;;;;4.91;61.04;102798.75;5195784;28;20097;-67
2022/04/17 04:26:30;;;;;;;5.90;3.53;;;;;;;4.90;60.80;102792.69;5196544;28;20042;-66
2022/04/17 04:29:01;;;;;;;6.65;4.30;;;;;;;4.85;60.69;102794.59;5194081;28;20113;-66
2022/04/17 04:31:32;;;;;;;4.88;3.63;;;;;;;4.76;62.43;102795.69;5194034;28;20385;-67
2022/04/17 04:34:04;;;;;;;6.85;3.70;;;;;;;4.89;62.22;102793.59;5197484;28;20469;-67
2022/04/17 04:36:35;;;;;;;6.63;4.20;;;;;;;4.90;61.33;102797.03;5197002;28;20124;-67
2022/04/17 04:39:06;;;;;;;6.32;4.05;;;;;;;4.82;61.52;102795.53;5194578;28;20030;-66
2022/04/17 04:41:37;;;;;;;8.20;3.90;;;;;;;4.86;61.36;102799.72;5196226;28;20034;-66
2022/04/17 04:44:09;;;;;;;9.82;4.13;;;;;;;4.76;62.49;102790.50;5192943;28;20064;-67
2022/04/17 04:46:40;;;;;;;7.15;4.03;;;;;;;4.76;62.59;102792.25;5195180;28;20034;-67
2022/04/17 04:49:29;;;;;;;9.68;4.75;;;;;;;4.70;62.22;102790.69;5195298;28;20026;-67
2022/04/17 04:52:02;;;;;;;5.65;4.28;;;;;;;4.66;62.35;102793.41;5199006;28;20803;-67
2022/04/17 04:54:34;;;;;;;4.53;3.80;;;;;;;4.63;64.32;102787.41;5193825;28;20449;-67
2022/04/17 04:57:07;;;;;;;5.97;4.10;;;;;;;4.63;63.23;102784.81;5195618;28;20029;-67
2022/04/17 04:59:38;;;;;;;6.40;4.35;;;;;;;4.59;64.03;102788.41;5189376;28;20402;-67
2022/04/17 05:02:10;;;;;;;6.45;4.55;;;;;;;4.62;65.36;102782.25;5197716;28;20030;-67
2022/04/17 05:04:41;;;;;;;6.82;4.50;;;;;;;4.63;66.52;102786.56;5194837;28;20093;-68
2022/04/17 05:07:12;;;;;;;7.18;4.70;;;;;;;4.63;65.70;102789.16;5191983;28;20038;-68
2022/04/17 05:09:43;;;;;;;7.97;4.55;;;;;;;4.59;66.86;102787.56;5190368;28;20049;-68
2022/04/17 05:12:15;;;;;;;6.78;4.18;;;;;;;4.58;65.67;102797.09;5196265;28;20487;-68
2022/04/17 05:14:46;;;;;;;7.47;4.40;;;;;;;4.57;65.79;102787.56;5186437;28;20041;-68
2022/04/17 05:17:17;;;;;;;6.68;4.75;;;;;;;4.64;64.24;102794.28;5185285;28;20018;-68
2022/04/17 05:19:49;;;;;;;6.53;4.00;;;;;;;4.70;64.86;102800.19;5188189;28;20050;-68
2022/04/17 05:22:22;;;;;;;7.35;4.95;;;;;;;4.78;64.24;102799.09;5187363;28;20034;-68
2022/04/17 05:24:53;;;;;;;8.13;4.50;;;;;;;4.83;64.04;102794.63;5192253;28;20029;-68
2022/04/17 05:27:24;;;;;;;7.88;4.70;;;;;;;4.89;64.51;102796.19;5197897;28;20472;-68
2022/04/17 05:29:56;;;;;;;6.53;4.43;;;;;;;4.95;64.38;102801.19;5228956;28;20042;-68
2022/04/17 05:32:27;;;;;;;6.13;4.53;;;;;;;5.03;65.76;102788.81;5205614;28;20030;-68
2022/04/17 05:34:59;;;;;;;6.30;4.55;;;;;;;5.09;64.35;102796.44;5191373;28;20025;-68
2022/04/17 05:37:30;;;;;;;11.70;4.70;;;;;;;5.18;62.40;102797.91;5186679;28;20030;-68
2022/04/17 05:40:02;;;;;;;6.95;4.40;;;;;;;5.27;63.83;102801.97;5191537;28;20136;-68
2022/04/17 05:42:34;;;;;;;8.40;4.32;;;;;;;5.27;64.64;102802.81;5203411;28;20041;-68
2022/04/17 05:45:05;;;;;;;8.05;5.32;;;;;;;5.32;63.07;102800.91;5204898;28;20456;-68
2022/04/17 05:47:37;;;;;;;10.63;4.35;;;;;;;5.43;61.91;102795.38;5195932;28;20029;-68
2022/04/17 05:50:08;;;;;;;7.32;4.60;;;;;;;5.46;64.05;102802.25;5197965;28;21171;-68
2022/04/17 05:52:41;;;;;;;7.07;4.97;;;;;;;5.51;61.87;102801.19;5189702;28;20029;-68
2022/04/17 05:55:12;;;;;;;6.05;4.53;;;;;;;5.55;62.59;102801.94;5196824;28;20554;-68
2022/04/17 05:57:43;;;;;;;7.88;4.68;;;;;;;5.57;61.78;102795.81;5187712;28;20085;-68
2022/04/17 06:00:16;;;;;;;7.20;4.65;;;;;;;5.59;63.15;102799.19;5190459;28;20129;-68
2022/04/17 06:02:48;;;;;;;8.88;4.75;;;;;;;5.63;61.97;102801.69;5188784;28;20022;-68
2022/04/17 06:05:19;;;;;;;6.53;4.40;;;;;;;5.70;63.78;102800.59;5191190;28;20054;-68
2022/04/17 06:07:50;;;;;;;8.60;4.43;;;;;;;5.79;61.85;102795.91;5190660;28;20136;-68
2022/04/17 06:10:21;;;;;;;6.15;4.32;;;;;;;5.86;61.45;102792.22;5205390;28;20113;-67
2022/04/17 06:12:53;;;;;;;5.75;4.03;;;;;;;5.96;61.51;102794.56;5199042;28;20038;-67
2022/04/17 06:15:24;;;;;;;6.18;4.60;;;;;;;6.05;60.63;102794.22;5194664;28;20030;-67
2022/04/17 06:17:55;;;;;;;5.15;3.97;;;;;;;6.14;61.10;102796.53;5195296;28;20593;-67
2022/04/17 06:20:27;;;;;;;5.50;3.95;;;;;;;6.27;59.76;102800.38;5197678;28;20368;-67
2022/04/17 06:22:58;;;;;;;6.13;3.83;;;;;;;6.44;58.26;102793.72;5196805;28;20041;-67
2022/04/17 06:25:30;;;;;;;5.28;3.83;;;;;;;6.56;57.84;102788.94;5198039;28;20784;-67
2022/04/17 06:28:01;;;;;;;5.15;3.67;;;;;;;6.71;57.83;102781.47;5193678;28;20038;-67
2022/04/17 06:30:33;;;;;;;6.53;3.70;;;;;;;6.88;57.89;102786.84;5196433;28;20038;-67
2022/04/17 06:33:04;;;;;;;5.68;3.65;;;;;;;7.07;55.76;102782.63;5191370;28;20038;-67
2022/04/17 06:35:35;;;;;;;8.57;3.55;;;;;;;7.23;56.13;102779.41;5194853;28;20030;-67
2022/04/17 06:38:10;;;;;;;7.18;3.65;;;;;;;7.37;54.67;102779.72;5195941;28;20088;-67
2022/04/17 06:40:42;;;;;;;5.45;3.10;;;;;;;7.63;53.89;102783.03;5195786;28;20049;-67
2022/04/17 06:43:13;;;;;;;5.28;3.53;;;;;;;7.83;53.55;102784.81;5195918;28;20026;-68
2022/04/17 06:45:44;;;;;;;3.72;2.97;;;;;;;8.01;51.53;102787.47;5195149;28;20029;-68
2022/04/17 06:48:18;;;;;;;4.38;3.05;;;;;;;8.28;49.47;102780.22;5196407;28;20034;-68
2022/04/17 06:50:52;;;;;;;6.10;3.15;;;;;;;8.47;48.75;102779.44;5196415;28;20048;-68
2022/04/17 06:53:24;;;;;;;4.32;2.72;;;;;;;8.52;48.25;102775.72;5192528;28;20034;-68
2022/04/17 06:55:55;;;;;;;4.35;3.30;;;;;;;8.69;48.12;102782.75;5188691;28;20065;-68
2022/04/17 06:58:26;;;;;;;5.45;2.97;;;;;;;8.88;47.23;102776.69;5202298;28;20085;-68
2022/04/17 07:00:58;;;;;;;5.88;2.90;;;;;;;8.94;47.50;102779.00;5196704;28;20046;-68
2022/04/17 07:03:29;;;;;;;5.05;3.30;;;;;;;9.05;47.26;102776.72;5196897;28;20503;-68
2022/04/17 07:06:00;;;;;;;5.32;2.83;;;;;;;9.33;47.89;102776.25;5204345;28;20064;-68
2022/04/17 07:08:32;;;;;;;6.45;3.00;;;;;;;9.38;46.91;102774.25;5199768;28;20128;-68
2022/04/17 07:11:04;;;;;;;4.47;2.95;;;;;;;9.55;47.49;102770.84;5200475;28;20040;-68
2022/04/17 07:13:35;;;;;;;9.07;3.20;;;;;;;9.77;46.68;102765.34;5196555;28;20034;-68
2022/04/17 07:16:06;;;;;;;4.82;2.72;;;;;;;9.92;45.99;102763.72;5198399;28;20472;-68
2022/04/17 07:18:38;;;;;;;4.78;3.17;;;;;;;10.10;44.96;102760.16;5194928;28;20034;-68
2022/04/17 07:21:09;;;;;;;6.30;2.97;;;;;;;10.11;44.23;102763.63;5191268;28;20476;-68
2022/04/17 07:23:43;;;;;;;4.82;2.88;;;;;;;10.22;44.12;102749.03;5196306;28;20026;-69
2022/04/17 07:26:15;;;;;;;4.75;3.00;;;;;;;10.35;43.63;102751.88;5198364;28;20033;-68
2022/04/17 07:28:46;;;;;;;4.72;2.60;;;;;;;10.45;42.99;102754.84;5195687;28;20431;-68
2022/04/17 07:31:17;;;;;;;4.10;2.58;;;;;;;10.73;44.47;102754.22;5196706;28;20089;-68
2022/04/17 07:33:49;;;;;;;5.78;2.60;;;;;;;10.79;42.69;102756.47;5194870;28;20326;-68
2022/04/17 07:36:20;;;;;;;4.75;2.80;;;;;;;10.99;44.23;102746.69;5194245;28;20042;-68
2022/04/17 07:38:52;;;;;;;6.25;2.90;;;;;;;11.04;42.00;102736.78;5195792;28;20030;-68
2022/04/17 07:41:23;;;;;;;7.00;2.75;;;;;;;11.04;41.66;102744.63;5186692;28;20097;-69
2022/04/17 07:43:54;;;;;;;4.50;2.65;;;;;;;11.33;41.49;102743.81;5186830;28;20022;-68
2022/04/17 07:46:26;;;;;;;3.30;2.42;;;;;;;11.48;42.26;102741.22;5190413;28;20038;-68
2022/04/17 07:48:57;;;;;;;5.10;2.50;;;;;;;11.50;40.76;102734.97;5195132;28;20526;-68
2022/04/17 07:51:28;;;;;;;4.63;2.28;;;;;;;11.77;40.61;102732.47;5199583;28;20030;-68
2022/04/17 07:54:00;;;;;;;4.88;2.47;;;;;;;11.81;40.05;102733.13;5196338;28;20443;-68
2022/04/17 07:56:32;;;;;;;5.90;2.55;;;;;;;11.92;39.87;102726.34;5197210;28;20701;-68
2022/04/17 07:59:04;;;;;;;4.43;2.45;;;;;;;12.05;39.72;102725.63;5196288;28;20034;-70
2022/04/17 08:01:39;;;;;;;5.63;2.85;;;;;;;12.28;41.22;102726.81;5195587;28;20021;-68
2022/04/17 08:04:10;;;;;;;8.52;2.83;;;;;;;12.37;40.26;102731.50;5197521;28;20018;-68
2022/04/17 08:06:42;;;;;;;5.07;2.70;;;;;;;12.50;39.17;102734.19;5197880;28;20486;-68
2022/04/17 08:09:13;;;;;;;4.93;2.75;;;;;;;12.61;38.89;102729.09;5195354;28;20437;-69
2022/04/17 08:11:51;;;;;;;5.38;2.45;;;;;;;12.61;38.13;102735.22;5196602;28;20037;-68
2022/04/17 08:14:22;;;;;;;5.30;2.03;;;;;;;12.73;38.52;102728.34;5197996;28;20045;-68
2022/04/17 08:16:53;;;;;;;4.40;2.40;;;;;;;12.79;38.80;102721.84;5196807;28;20592;-69
2022/04/17 08:19:25;;;;;;;4.88;2.80;;;;;;;12.88;37.86;102727.38;5196654;28;20177;-69
2022/04/17 08:21:56;;;;;;;4.38;2.60;;;;;;;12.99;37.39;102728.44;5197158;28;20033;-69
2022/04/17 08:24:30;;;;;;;3.13;2.40;;;;;;;13.21;37.65;102730.50;5194905;28;20018;-69
2022/04/17 08:27:02;;;;;;;4.03;2.40;;;;;;;13.25;37.07;102730.22;5194952;28;20038;-69
2022/04/17 08:29:33;;;;;;;3.53;2.50;;;;;;;13.44;36.20;102723.75;5197893;28;20503;-68
2022/04/17 08:32:04;;;;;;;3.35;2.63;;;;;;;13.50;36.37;102731.25;5196368;28;20459;-68
2022/04/17 08:34:35;;;;;;;3.47;2.10;;;;;;;13.55;37.07;102723.88;5196224;28;20026;-69
2022/04/17 08:37:07;;;;;;;5.30;2.75;;;;;;;13.78;37.30;102727.56;5197563;28;20491;-69
2022/04/17 08:39:38;;;;;;;5.50;2.45;;;;;;;13.92;36.00;102716.09;5195360;28;20033;-69
2022/04/17 08:42:11;;;;;;;4.00;2.25;;;;;;;14.02;35.24;102722.44;5193668;28;20083;-69
2022/04/17 08:44:42;;;;;;;;;;;;;;;14.56;36.77;102716.88;5199969;28;20566;-69
2022/04/17 08:47:14;;;;;;;3.97;2.30;;;;;;;14.40;36.51;102716.25;5199670;28;19925;-69
2022/04/17 08:49:47;;;;;;;4.53;2.45;;;;;;;14.33;34.96;102714.03;5198967;28;20145;-69
2022/04/17 08:52:19;;;;;;;4.47;2.70;;;;;;;14.48;34.99;102713.91;5197672;28;20034;-69
2022/04/17 08:54:51;;;;;;;3.37;1.93;;;;;;;14.84;35.98;102713.88;5196170;28;20305;-69
2022/04/17 08:57:22;;;;;;;5.30;2.70;;;;;;;14.72;33.09;102701.59;5196432;28;20040;-68
2022/04/17 08:59:54;;;;;;;5.03;2.40;;;;;;;14.79;33.12;102702.84;5197383;28;20105;-69
2022/04/17 09:02:25;;;;;;;3.35;2.72;;;;;;;15.06;35.53;102696.47;5195927;28;20270;-69
2022/04/17 09:04:57;;;;;;;5.88;2.03;;;;;;;15.10;33.74;102695.28;5192705;28;20018;-69
2022/04/17 09:07:41;;;;;;;5.30;2.13;;;;;;;15.38;33.41;102699.38;5197077;28;20497;-69
2022/04/17 09:10:24;;;;;;;5.32;2.17;;;;;;;15.58;34.28;102697.84;5195941;28;20032;-69
2022/04/17 09:12:57;;;;;;;4.40;2.30;;;;;;;15.53;32.77;102692.03;5197267;28;20490;-69
2022/04/17 09:15:30;;;;;;;;;;;;;;;16.03;32.42;102693.47;5197169;28;20198;-69
2022/04/17 09:18:06;;;;;;;3.37;2.20;;;;;;;15.62;32.16;102698.44;5196147;28;19921;-69
2022/04/17 09:20:37;;;;;;;3.38;2.20;;;;;;;15.59;31.46;102686.31;5196829;28;20511;-69
2022/04/17 09:23:08;;;;;;;2.70;1.70;;;;;;;15.68;31.77;102690.06;5196467;28;20050;-69
2022/04/17 09:25:43;;;;;;;5.18;2.25;;;;;;;15.60;32.29;102687.13;5196942;28;20202;-69
2022/04/17 09:28:14;;;;;;;4.35;2.13;;;;;;;15.75;31.77;102681.53;5194629;28;20037;-69
2022/04/17 09:30:47;;;;;;;2.97;1.88;;;;;;;15.85;30.21;102679.03;5195468;28;20093;-68
2022/04/17 09:33:18;;;;;;;6.17;2.37;;;;;;;15.73;30.49;102672.91;5193305;28;20459;-68
2022/04/17 09:35:55;;;;;;;4.82;2.03;;;;;;;16.04;31.90;102670.50;5194887;28;20136;-68
2022/04/17 09:38:30;;;;;;;4.20;2.13;;;;;;;16.09;31.91;102675.41;5193499;28;20428;-68
2022/04/17 09:41:14;;;;;;;4.22;2.08;;;;;;;16.18;31.07;102670.25;5195305;28;20579;-68
2022/04/17 09:43:46;;;;;;;3.35;2.08;;;;;;;16.24;30.18;102669.75;5197177;28;20053;-68
2022/04/17 09:46:19;;;;;;;3.40;2.50;;;;;;;16.15;30.77;102664.38;5191990;28;20776;-68
2022/04/17 09:48:50;;;;;;;4.53;2.28;;;;;;;16.02;30.36;102660.06;5196691;28;20026;-68
2022/04/17 09:51:26;;;;;;;4.35;2.28;;;;;;;16.41;31.46;102646.41;5195616;28;20076;-68
2022/04/17 09:54:05;;;;;;;4.55;2.47;;;;;;;16.50;31.50;102649.13;5195260;28;20033;-68
2022/04/17 09:56:43;;;;;;;3.88;2.38;;;;;;;16.56;31.25;102639.88;5194838;28;20109;-68
2022/04/17 09:59:23;;;;;;;3.22;2.30;;;;;;;16.62;31.61;102642.00;5195917;28;20025;-68
2022/04/17 10:01:56;;;;;;;2.95;2.05;;;;;;;16.74;32.17;102630.47;5193309;28;20034;-69
2022/04/17 10:04:27;;;;;;;;;;;;;;;17.43;31.96;102627.28;5197191;28;20112;-69
2022/04/17 10:06:59;;;;;;;4.33;2.47;;;;;;;17.13;31.91;102627.25;5196347;28;19939;-68
2022/04/17 10:09:31;;;;;;;2.95;1.88;;;;;;;17.09;29.13;102624.00;5194586;28;20336;-69
2022/04/17 10:12:05;;;;;;;2.88;1.65;;;;;;;17.24;29.17;102619.22;5196280;28;20062;-69
2022/04/17 10:14:37;;;;;;;3.92;2.00;;;;;;;17.34;29.94;102613.97;5196358;28;20288;-69
2022/04/17 10:17:09;;;;;;;3.28;2.03;;;;;;;17.18;31.49;102606.50;5193801;28;20387;-69
2022/04/17 10:19:42;;;;;;;6.40;2.10;;;;;;;17.37;30.47;102603.13;5194878;28;20496;-69
2022/04/17 10:22:18;;;;;;;6.35;2.53;;;;;;;17.26;31.56;102596.09;5193804;28;20280;-69
2022/04/17 10:24:53;;;;;;;3.28;2.03;;;;;;;17.21;31.44;102601.78;5194216;28;20141;-69
2022/04/17 10:27:35;;;;;;;4.55;2.45;;;;;;;17.15;31.34;102591.69;5194292;28;20034;-69
2022/04/17 10:30:15;;;;;;;3.30;2.17;;;;;;;17.21;29.98;102580.59;5195603;28;20125;-69
2022/04/17 10:33:03;;;;;;;2.40;1.38;;;;;;;17.19;29.49;102584.34;5195457;28;20033;-69
2022/04/17 10:35:50;;;;;;;3.30;2.00;;;;;;;17.13;29.54;102576.94;5193911;28;20110;-69
2022/04/17 10:38:23;;;;;;;2.95;1.70;;;;;;;17.25;30.16;102571.41;5191569;28;20034;-69
2022/04/17 10:40:55;;;;;;;;;;;;;;;17.92;30.18;102567.38;5194529;28;20064;-69
2022/04/17 10:43:42;;;;;;;3.95;2.00;;;;;;;17.69;30.04;102564.06;5191632;28;19944;-69
2022/04/17 10:46:16;;;;;;;3.08;1.77;;;;;;;17.47;28.58;102556.31;5186132;28;20143;-70
2022/04/17 10:48:55;;;;;;;2.95;1.90;;;;;;;17.58;28.82;102558.88;5195807;28;20015;-71
2022/04/17 10:51:31;;;;;;;3.22;1.70;;;;;;;17.68;28.27;102546.47;5191889;28;20661;-71
2022/04/17 10:54:07;;;;;;;2.88;1.65;;;;;;;17.86;29.38;102553.81;5195936;28;20475;-72
2022/04/17 10:56:53;;;;;;;2.90;1.70;;;;;;;18.00;27.56;102540.16;5197869;28;20476;-73
2022/04/17 10:59:33;;;;;;;2.70;1.77;;;;;;;18.11;28.89;102539.22;5194945;28;20069;-71
2022/04/17 11:02:24;;;;;;;3.42;1.90;;;;;;;17.93;27.11;102539.03;5196701;28;20026;-70
2022/04/17 11:04:55;;;;;;;4.32;1.55;;;;;;;17.91;26.83;102527.72;5197864;28;20136;-69
2022/04/17 11:07:31;;;;;;;7.65;1.95;;;;;;;18.23;27.94;102530.13;5190171;28;20029;-70
2022/04/17 11:10:22;;;;;;;4.15;1.98;;;;;;;18.44;26.58;102525.50;5192264;28;20053;-68
2022/04/17 11:12:55;;;;;;;3.72;1.60;;;;;;;18.24;25.86;102524.69;5193272;28;20101;-70
2022/04/17 11:15:28;;;;;;;2.90;1.70;;;;;;;18.42;26.25;102524.81;5200341;28;20032;-71
2022/04/17 11:18:01;;;;;;;3.63;2.00;;;;;;;18.38;25.57;102512.81;5195724;28;20318;-70
2022/04/17 11:20:33;;;;;;;;;;;;;;;19.14;27.39;102512.00;5198820;28;20554;-71
2022/04/17 11:23:05;;;;;;;3.88;1.88;;;;;;;18.77;25.07;102515.44;5197506;28;20006;-70
2022/04/17 11:25:49;;;;;;;3.83;1.38;;;;;;;18.86;24.88;102505.78;5189913;28;20034;-70
2022/04/17 11:28:35;;;;;;;2.20;1.17;;;;;;;18.75;23.68;102498.81;5191015;28;20173;-67
2022/04/17 11:31:07;;;;;;;2.92;1.23;;;;;;;18.72;24.82;102499.13;5192188;28;20038;-69
2022/04/17 11:33:41;;;;;;;5.18;1.40;;;;;;;18.82;24.78;102491.94;5195559;28;20033;-70
2022/04/17 11:36:13;;;;;;;2.50;1.42;;;;;;;18.97;24.13;102492.31;5193222;28;20559;-69
2022/04/17 11:38:45;;;;;;;2.80;1.40;;;;;;;19.19;25.95;102496.44;5187254;28;20034;-69
2022/04/17 11:41:23;;;;;;;5.25;1.60;;;;;;;19.17;24.95;102483.31;5189235;28;20026;-69
2022/04/17 11:44:01;;;;;;;3.30;1.30;;;;;;;19.23;23.75;102483.69;5189041;28;20014;-71
2022/04/17 11:46:33;;;;;;;3.30;1.15;;;;;;;19.19;23.14;102477.84;5191292;28;20034;-69
2022/04/17 11:49:04;;;;;;;3.40;1.63;;;;;;;19.36;23.09;102470.91;5193363;28;20033;-70
2022/04/17 11:51:45;;;;;;;1.90;1.30;;;;;;;19.31;24.17;102468.69;5194086;28;20021;-70
2022/04/17 11:54:32;;;;;;;2.83;1.40;;;;;;;19.33;23.23;102464.06;5192619;28;20645;-68
2022/04/17 11:57:04;;;;;;;3.40;1.52;;;;;;;19.19;22.32;102462.72;5189857;28;20068;-69
2022/04/17 11:59:56;;;;;;;2.15;1.20;;;;;;;19.28;24.02;102453.06;5193267;28;20054;-69
2022/04/17 12:02:28;;;;;;;3.95;1.40;;;;;;;19.39;24.13;102452.00;5195100;28;20472;-69
2022/04/17 12:05:12;;;;;;;2.30;1.35;;;;;;;19.49;22.79;102439.50;5194003;28;20017;-69
2022/04/17 12:07:44;;;;;;;3.15;1.35;;;;;;;19.58;23.16;102443.06;5197743;28;20037;-68
2022/04/17 12:10:15;;;;;;;4.45;1.52;;;;;;;19.81;22.47;102433.72;5195799;28;20026;-69